Forside
METAR-TAF:

METAR-TAF

Lufthavne :

Ürümqi, Kina

Breddekreds: 43-54N, længdekreds: 087-28E, højde: 654 m

Aktuelle vejr

Denne rapport blev lavet for 30 minutter siden, kl. 09:30 UTC
Vind 10 kt fra nord, varierende mellem nordnordvest og nordøst
Temperatur 25°C
Fugtighed 18%
Tryk 1017 hPa
Sigt 10 km eller mere
ingen skyer under 1500m og ingen cumulonimbus

METAR: ZWWW 230930Z 01005MPS 330V040 CAVOK 25/M01 Q1017 NOSIG

Tid: 16:00 (10:00 UTC)

Vejrudsigter

Denne rapport blev lavet for 6 timer og 55 minutter siden, kl. 03:05 UTC
Foreløbig gælder fra 23 på 06 UTC til 24 på 06 UTC
Vind 8 kt fra nord
Sigt 10 km eller mere
ingen skyer under 1500m og ingen cumulonimbus
ændring
fra 23 på 13 UTC til 23 på 14 UTC
Vind 8 kt fra syd
Sigt 10 km eller mere
Brudte skyer i en højde af 4000 ft
ændring
fra 24 på 02 UTC til 24 på 03 UTC
Vind 8 kt fra vestnordvest med vindstød på up til 17 kt

TAF: ZWWW 230305Z 2306/2406 36004MPS CAVOK TX24/2309Z TN12/2323Z BECMG 2313/2314 18004MPS 9999 BKN040 BECMG 2402/2403 30004G09MPS

Vejrobservationer og prognoser fra mere end 4000 lufthavne (METAR og TAF).

De gule og røde prikker repræsenterer de meteorologiske stationer.

Flyt musen over at se navnet på stationen.

Så klik over at se vejr observationer og prognoser.

At skifte det kort: Klik på de grønne knapper med et sort kors for at zoome ind; på den grønne knap med en bindestreg for at zoome ud; eller på de grønne pile for tilstødende kort.


METAR-TAF: